Terminal Aerodrome Forecast
Issued by NWS Wilmington, OH

Home | Current Version | Previous Version | Text Only | Print | Product List | Glossary On
Versions: 1 2 3 4 5 6 7 8 9 10 11 12 13 14 15 16 17 18 19 20 21 22 23 24 25 26 27
000
FTUS41 KILN 311100 RRA
TAFCMH
TAF
KCMH 311139Z 3112/0112 00000KT P6SM FEW090 SCT250
     FM311300 21007KT P6SM SCT250
     FM311800 22007KT P6SM BKN250
     FM010000 21006KT P6SM BKN050 OVC200
      TEMPO 0104/0106 BKN030
     FM010600 30005KT 5SM -SN OVC020
      TEMPO 0108/0112 1SM -SN OVC008=

USA.gov is the U.S. government's official web portal to all federal, state and local government web resources and services.